Latest Coastal Weather Observations for Coolangatta (QLD)

IDN60701

Issued at 1:51 am EST Thursday 29 June 2017 (issued every 10 minutes, with the page automatically refreshed every 10 minutes)

About coastal observations | Map of coastal stations | Coastal observations for NSW | Marine services | Other Formats
Station Details ID: 040717 Name: COOLANGATTA Lat: -28.17 Lon: 153.51 Height: 4.0 m
Data from the previous 72 hours. | See also: Recent months at Coolangatta (QLD)
Date/Time
EST
Temp
°C
Wind Pressure Rain since
9am
mm
Weather Cloud Vis
km
Sea
Height
m
Swell
Dir  Spd
kts
Gust
kts
hPa Trend Height
m
Period
s
Dir
29/01:30am 17.4 NW 7 9 1022.3 - 0.0 - - 10 - - - -
29/01:00am 17.1 NW 7 9 1022.4 - 0.0 - - 10 - - - -
29/12:30am 16.7 NW 6 8 1022.8 - 0.0 - - 10 - - - -
29/12:00am 17.0 NW 6 8 1023.0 - 0.0 - - 10 - - - -
 
Date/Time
EST
Temp
°C
Wind Pressure Rain since
9am
mm
Weather Cloud Vis
km
Sea
Height
m
Swell
Dir  Spd
kts
Gust
kts
hPa Trend Height
m
Period
s
Dir
28/11:30pm 17.2 NW 6 8 1023.2 - 0.0 - - 10 - - - -
28/11:00pm 17.2 NW 6 8 1023.4 - 0.0 - - 10 - - - -
28/10:30pm 17.5 NW 6 8 1023.4 - 0.0 - Partly cloudy 10 - - - -
28/10:00pm 17.9 WNW 8 10 1023.6 - 0.0 - - 10 - - - -
28/09:30pm 17.5 WNW 6 8 1023.7 - 0.0 - - 10 - - - -
28/09:00pm 17.3 WNW 7 8 1023.6 - 0.0 - Mostly clear 10 - - - -
28/08:30pm 17.0 NW 6 9 1023.3 - 0.0 - - 10 - - - -
28/08:00pm 17.2 WNW 6 8 1023.3 - 0.0 - - 10 - - - -
28/07:30pm 17.7 WNW 5 7 1023.1 - 0.0 - - 10 - - - -
28/07:00pm 18.3 NW 6 7 1023.0 - 0.0 - - 10 - - - -
28/06:30pm 19.3 NW 6 9 1022.8 - 0.0 - - 10 - - - -
28/06:00pm 20.5 N 13 16 1022.5 - 0.0 - Mostly cloudy 10 - - - -
28/05:30pm 20.8 N 12 15 1022.4 - 0.0 - Partly cloudy 10 - - - -
28/05:00pm 20.6 N 12 15 1022.2 - 0.0 - Partly cloudy 10 - - - -
28/04:30pm 20.9 N 12 15 1022.1 - 0.0 - - 10 - - - -
28/04:00pm 21.6 N 12 16 1021.9 - 0.0 - - 10 - - - -
28/03:30pm 21.9 N 13 16 1021.8 - 0.0 - - 10 - - - -
28/03:00pm 22.0 N 13 16 1021.8 - 0.0 - - 10 - - - -
28/02:30pm 22.5 N 12 15 1022.0 - 0.0 - - 10 - - - -
28/02:00pm 22.7 N 12 15 1021.9 - 0.0 - Partly cloudy 10 - - - -
28/01:30pm 22.6 N 12 15 1022.0 - 0.0 - Partly cloudy 10 - - - -
28/01:00pm 23.0 N 12 14 1022.2 - 0.0 - Partly cloudy 10 - - - -
28/12:30pm 22.8 N 12 16 1022.8 - 0.0 - Partly cloudy 10 - - - -
28/12:00pm 22.6 N 11 14 1023.4 - 0.0 - - 10 - - - -
28/11:30am 21.6 N 10 13 1023.9 - 0.0 - - 10 - - - -
28/11:00am 22.0 N 9 12 1024.0 - 0.0 - - 10 - - - -
28/10:30am 21.5 N 9 11 1024.8 - 0.0 - - 10 - - - -
28/10:00am 21.8 NNW 6 8 1024.9 - 0.0 - - 10 - - - -
28/09:30am 21.4 NW 6 9 1025.0 - 0.0 - - 10 - - - -
28/09:00am 20.4 NW 4 7 1024.6 - 0.0 - Partly cloudy 10 - - - -
28/08:30am 17.6 SW 1 4 1024.8 - 0.0 - - 10 - - - -
28/08:00am 15.4 SSW 3 4 1024.4 - 0.0 - - 10 - - - -
28/07:30am 14.7 WSW 4 4 1024.4 - 0.0 - Partly cloudy 10 - - - -
28/07:00am 13.7 WSW 1 4 1024.4 - 0.0 - Partly cloudy 10 - - - -
28/06:30am 13.2 SSE 2 4 1023.8 - 0.0 - Partly cloudy 10 - - - -
28/06:00am 13.6 CALM 0 0 1023.6 - 0.0 - Cloudy 10 - - - -
28/05:30am 12.7 CALM 0 0 1023.1 - 0.0 - - 10 - - - -
28/05:00am 13.0 CALM 0 0 1023.2 - 0.0 - - 10 - - - -
28/04:30am 13.2 SW 3 3 1023.2 - 0.0 - - 10 - - - -
28/04:22am 13.2 WSW 3 5 1023.2 - 0.0 - - 10 - - - -
28/04:05am 13.0 CALM 0 4 1023.3 - 0.0 - - 6 - - - -
28/04:00am 13.5 CALM 0 0 1023.3 - 0.0 - - 10 - - - -
28/03:30am 13.7 SW 3 4 1023.6 - 0.0 - Partly cloudy 10 - - - -
28/03:00am 13.6 CALM 0 0 1023.6 - 0.0 - Mostly clear 10 - - - -
28/02:30am 14.6 SW 4 4 1023.6 - 0.0 - Partly cloudy 10 - - - -
28/02:00am 14.4 CALM 0 0 1023.8 - 0.0 - Partly cloudy 10 - - - -
28/01:30am 14.1 CALM 0 0 1023.7 - 0.0 - - 10 - - - -
28/01:00am 14.5 SSW 2 3 1023.9 - 0.0 - - 10 - - - -
28/12:30am 14.7 SW 1 3 1023.7 - 0.0 - - 10 - - - -
28/12:00am 14.7 WSW 2 5 1024.0 - 0.0 - Partly cloudy 10 - - - -
 
Date/Time
EST
Temp
°C
Wind Pressure Rain since
9am
mm
Weather Cloud Vis
km
Sea
Height
m
Swell
Dir  Spd
kts
Gust
kts
hPa Trend Height
m
Period
s
Dir
27/11:30pm 14.9 CALM 0 0 1024.3 - 0.0 - Partly cloudy 10 - - - -
27/11:00pm 15.3 SSW 2 4 1024.6 - 0.0 - Partly cloudy 10 - - - -
27/10:30pm 15.5 SW 6 7 1024.5 - 0.0 - Cloudy 10 - - - -
27/10:00pm 15.4 WSW 7 8 1024.5 - 0.0 - Partly cloudy 10 - - - -
27/09:30pm 15.1 S 1 4 1024.3 - 0.0 - Partly cloudy 10 - - - -
27/09:00pm 15.3 CALM 0 0 1025.0 - 0.0 - Cloudy 10 - - - -
27/08:30pm 15.6 CALM 0 0 1024.9 - 0.0 - Partly cloudy 10 - - - -
27/08:00pm 16.1 WSW 3 4 1024.8 - 0.0 - Partly cloudy 10 - - - -
27/07:30pm 16.4 SW 5 6 1024.5 - 0.0 - Partly cloudy 10 - - - -
27/07:00pm 16.5 SSW 3 4 1024.1 - 0.0 - Partly cloudy 10 - - - -
27/06:30pm 16.6 WSW 4 5 1024.2 - 0.0 - Partly cloudy 10 - - - -
27/06:00pm 16.9 WSW 5 6 1024.0 - 0.0 - Mostly cloudy 10 - - - -
27/05:30pm 16.8 SW 3 5 1023.8 - 0.0 - Partly cloudy 10 - - - -
27/05:00pm 17.9 SW 3 5 1023.7 - 0.0 - Partly cloudy 10 - - - -
27/04:30pm 19.2 SSE 4 7 1023.7 - 0.0 - Partly cloudy 10 - - - -
27/04:00pm 19.7 SSE 6 9 1023.6 - 0.0 - Partly cloudy 10 - - - -
27/03:30pm 19.8 SSE 6 8 1023.6 - 0.0 - Partly cloudy 10 - - - -
27/03:00pm 20.2 SE 8 10 1023.6 - 0.0 - Cloudy 10 - - - -
27/02:30pm 20.6 ESE 8 10 1023.5 - 0.0 - Partly cloudy 10 - - - -
27/02:00pm 21.0 SSE 6 11 1023.6 - 0.0 - Partly cloudy 10 - - - -
27/01:30pm 20.5 SE 7 9 1023.8 - 0.0 - Partly cloudy 10 - - - -
27/01:00pm 20.3 SSE 7 9 1023.9 - 0.0 - Partly cloudy 10 - - - -
27/12:30pm 20.3 S 7 10 1024.3 - 0.0 - Partly cloudy 10 - - - -
27/12:00pm 20.1 S 6 9 1024.7 - 0.0 - Cloudy 10 - - - -
27/11:30am 19.4 S 6 9 1025.1 - 0.0 - Partly cloudy 10 - - - -
27/11:00am 19.4 S 7 9 1025.4 - 0.0 - Partly cloudy 10 - - - -
27/10:30am 19.5 S 7 9 1025.4 - 0.0 - Partly cloudy 10 - - - -
27/10:00am 19.6 S 7 9 1025.5 - 0.0 - Partly cloudy 10 - - - -
27/09:30am 18.5 S 5 6 1025.5 - 0.0 - Partly cloudy 10 - - - -
27/09:00am 18.0 SSE 5 6 1025.5 - 0.0 - Cloudy 10 - - - -
27/08:30am 18.0 SSW 6 8 1025.2 - 0.0 - - 10 - - - -
27/08:00am 17.9 S 6 8 1024.8 - 0.0 - - 10 - - - -
27/07:30am 16.4 SSW 5 6 1024.9 - 0.0 - Partly cloudy 10 - - - -
27/07:00am 16.3 SW 6 8 1024.6 - 0.0 - Partly cloudy 10 - - - -
27/06:30am 15.2 SW 5 6 1024.2 - 0.0 - Partly cloudy 10 - - - -
27/06:00am 14.8 SSW 5 6 1023.8 - 0.0 - - 10 - - - -
27/05:30am 14.2 SSW 4 5 1023.6 - 0.0 - - 10 - - - -
27/05:00am 14.6 S 5 6 1023.3 - 0.0 - - 10 - - - -
27/04:30am 15.0 S 5 8 1023.2 - 0.0 - Partly cloudy 10 - - - -
27/04:00am 15.1 S 5 7 1023.0 - 0.0 - Partly cloudy 10 - - - -
27/03:30am 13.5 S 3 5 1023.0 - 0.0 - Partly cloudy 10 - - - -
27/03:00am 14.0 SSW 4 6 1023.2 - 0.0 - - 10 - - - -
27/02:30am 14.9 SW 5 6 1023.3 - 0.0 - - 10 - - - -
27/02:00am 14.2 SW 4 5 1023.2 - 0.0 - - 10 - - - -
27/01:30am 14.6 SW 5 5 1023.3 - 0.0 - - 10 - - - -
27/01:00am 13.6 SSW 5 5 1023.3 - 0.0 - - 10 - - - -
27/12:30am 13.4 SSW 4 5 1023.2 - 0.0 - - 10 - - - -
27/12:00am 11.9 SSW 3 4 1023.1 - 0.0 - - 10 - - - -
 
Date/Time
EST
Temp
°C
Wind Pressure Rain since
9am
mm
Weather Cloud Vis
km
Sea
Height
m
Swell
Dir  Spd
kts
Gust
kts
hPa Trend Height
m
Period
s
Dir
26/11:30pm 12.5 CALM 0 0 1023.3 - 0.0 - - 10 - - - -
26/11:00pm 13.0 CALM 0 0 1023.3 - 0.0 - - 10 - - - -
26/10:30pm 13.5 S 4 5 1023.4 - 0.0 - - 10 - - - -
26/10:00pm 13.0 SW 4 5 1023.4 - 0.0 - - 10 - - - -
26/09:30pm 12.9 SW 2 3 1023.3 - 0.0 - - 10 - - - -
26/09:00pm 12.8 SW 4 5 1023.0 - 0.0 - - 10 - - - -
26/08:30pm 13.3 SSW 4 5 1022.8 - 0.0 - - 10 - - - -
26/08:00pm 13.9 SW 3 6 1022.7 - 0.0 - - 10 - - - -
26/07:30pm 14.3 SW 5 7 1022.4 - 0.0 - - 10 - - - -
26/07:00pm 14.6 WSW 7 8 1022.1 - 0.0 - - 10 - - - -
26/06:30pm 15.0 WSW 4 5 1021.6 - 0.0 - - 10 - - - -
26/06:00pm 15.6 WSW 3 4 1021.3 - 0.0 - - 10 - - - -
26/05:30pm 17.7 S 4 5 1020.8 - 0.0 - Partly cloudy 10 - - - -
26/05:00pm 18.6 SSE 7 10 1020.8 - 0.0 - Partly cloudy 10 - - - -
26/04:30pm 20.0 SE 8 10 1020.5 - 0.0 - - 10 - - - -
26/04:00pm 21.3 SE 9 11 1020.2 - 0.0 - - 10 - - - -
26/03:30pm 22.2 SE 11 14 1020.1 - 0.0 - Partly cloudy 10 - - - -
26/03:00pm 22.4 SE 12 15 1019.7 - 0.0 - - 10 - - - -
26/02:30pm 22.7 SE 13 16 1019.4 - 0.0 - - 10 - - - -
26/02:00pm 22.6 SE 12 15 1019.4 - 0.0 - Partly cloudy 10 - - - -
26/01:30pm 22.6 ESE 10 12 1019.5 - 0.0 - Partly cloudy 10 - - - -
26/01:00pm 22.9 ESE 8 11 1019.6 - 0.0 - - 10 - - - -
26/12:30pm 22.4 ENE 7 9 1020.0 - 0.0 - - 10 - - - -
26/12:00pm 22.3 SSE 5 8 1020.2 - 0.0 - - 10 - - - -
26/11:30am 21.9 SSE 6 9 1020.5 - 0.0 - - 10 - - - -
26/11:00am 21.7 SSE 7 10 1020.7 - 0.0 - - 10 - - - -
26/10:30am 20.9 SSE 7 9 1020.9 - 0.0 - - 10 - - - -
26/10:00am 20.7 SSE 6 9 1021.0 - 0.0 - - 10 - - - -
26/09:30am 19.5 SSE 6 8 1021.0 - 0.0 - - 10 - - - -
26/09:00am 18.6 SSE 4 5 1020.9 - 0.0 - - 10 - - - -
26/08:30am 16.9 S 4 5 1020.7 - 0.0 - - 10 - - - -
26/08:00am 15.6 SSE 4 5 1020.5 - 0.0 - - 10 - - - -
26/07:30am 14.1 SE 3 4 1020.2 - 0.0 - - 10 - - - -
26/07:10am 12.9 CALM 0 0 1019.9 - 0.0 - - 10 - - - -
26/07:00am 12.6 CALM 0 1 1019.7 - 0.0 - - 6 - - - -
26/06:30am 12.3 CALM 0 0 1019.3 - 0.0 - - 0.5 - - - -
26/06:18am 12.6 S 1 3 1019.2 - 0.0 - - 4 - - - -
26/06:01am 13.0 WSW 3 4 1019.1 - 0.0 - - 10 - - - -
26/06:00am 13.1 WSW 3 4 1019.0 - 0.0 - - 10 - - - -
26/05:43am 12.8 SSW 1 4 1018.9 - 0.0 - - 6 - - - -
26/05:30am 13.4 S 1 3 1018.8 - 0.0 - - 10 - - - -
26/05:18am 13.1 CALM 0 0 1018.8 - 0.0 - - 10 - - - -
26/05:00am 13.2 CALM 0 0 1018.7 - 0.0 - - 2 - - - -
26/04:52am 13.0 SSE 1 3 1018.7 - 0.0 - - 6 - - - -
26/04:30am 13.3 SSE 1 3 1018.7 - 0.0 - - 10 - - - -
26/04:00am 14.0 SW 3 5 1018.5 - 0.0 - - 10 - - - -
26/03:30am 14.3 WSW 5 6 1018.7 - 0.0 - Partly cloudy 10 - - - -
26/03:00am 14.1 WSW 4 5 1018.7 - 0.0 - Mostly cloudy 10 - - - -
26/02:30am 13.7 WNW 7 8 1018.8 - 0.0 - Partly cloudy 10 - - - -
26/02:00am 13.9 W 4 6 1018.8 - 0.0 - Cloudy 10 - - - -

Other Formats:

Comma delimited format used in spreadsheet applications
http://www.bom.gov.au/fwo/IDN60701/IDN60701.94592.axf

JavaScript Object Notation format (JSON) in row-major order
http://www.bom.gov.au/fwo/IDN60701/IDN60701.94592.json